Humidity-temperature Sensor

Selected Measurement Type: Air Temperature

 
Air Temperature [°C]     6 entries per hour
Showing data from 10/8/2015 (00:00:00 Z) to 10/1/2015 (00:01:00 Z)
Previous Next [ Day | 3-Days | 7-Days ]
First Last
Prev [ Day | 3-Days | 7-Days ] Next
First Last

Start Time:     :
End Time:     :     
Time (in GMT) :00 :50 :40 :30 :20 :10
Previous Next [ Day | 3-Days | 7-Days ]
First Last
Prev [ Day | 3-Days | 7-Days ] Next
First Last


123 => good data
MM => data is determined as missing
-- => data not received/configured
Back to Top Back to Top
10/8/2015 00:00 to 23:10 27.85 28.25 28.65 28.78 28.57 28.66
10/7/2015 23:00 to 22:10 28.67 28.49 28.50 28.65 28.47 28.58
10/7/2015 22:00 to 21:10 28.55 28.59 28.43 28.41 28.52 28.54
10/7/2015 21:00 to 20:10 28.46 28.57 28.46 28.44 28.55 28.59
10/7/2015 20:00 to 19:10 28.60 28.58 28.58 28.60 28.64 28.60
10/7/2015 19:00 to 18:10 28.67 28.54 28.56 28.45 28.53 28.50
10/7/2015 18:00 to 17:10 28.52 28.38 28.40 28.41 28.37 28.20
10/7/2015 17:00 to 16:10 28.30 28.36 28.36 28.48 28.63 28.53
10/7/2015 16:00 to 15:10 28.25 28.40 28.30 28.16 28.12 28.13
10/7/2015 15:00 to 14:10 28.11 28.20 28.13 28.16 27.99 28.13
10/7/2015 14:00 to 13:10 28.06 28.10 28.11 28.00 28.03 28.17
10/7/2015 13:00 to 12:10 28.05 28.04 27.98 27.43 26.80 27.21
10/7/2015 12:00 to 11:10 28.15 28.14 27.90 28.27 27.97 27.91
10/7/2015 11:00 to 10:10 27.91 28.06 28.12 27.99 28.23 27.99
10/7/2015 10:00 to 9:10 28.06 28.09 28.05 27.99 28.12 28.23
10/7/2015 09:00 to 8:10 28.24 28.21 28.18 28.16 28.28 28.37
10/7/2015 08:00 to 7:10 28.31 28.49 28.28 28.36 28.29 28.24
10/7/2015 07:00 to 6:10 28.34 28.39 28.36 28.38 28.21 28.56
10/7/2015 06:00 to 5:10 28.50 28.40 28.42 28.34 28.47 28.51
10/7/2015 05:00 to 4:10 28.39 28.31 28.30 28.29 28.26 28.42
10/7/2015 04:00 to 3:10 28.33 28.40 28.30 28.46 28.38 28.40
10/7/2015 03:00 to 2:10 28.27 28.15 28.61 28.43 28.30 28.62
10/7/2015 02:00 to 1:10 28.38 28.54 28.73 28.70 28.64 28.70
10/7/2015 01:00 to 0:10 28.70 28.56 28.62 28.53 28.72 28.71
10/7/2015 00:00 to 23:10 28.45 28.58 28.59 28.49 28.63 28.44
10/6/2015 23:00 to 22:10 28.35 28.37 28.48 28.46 28.31 28.44
10/6/2015 22:00 to 21:10 28.40 28.45 28.25 28.28 28.33 28.18
10/6/2015 21:00 to 20:10 28.44 28.27 28.43 28.19 28.29 28.45
10/6/2015 20:00 to 19:10 28.48 28.37 28.48 28.48 28.44 28.45
10/6/2015 19:00 to 18:10 28.54 28.45 28.51 28.40 28.54 28.47
10/6/2015 18:00 to 17:10 28.30 28.29 28.37 28.39 28.26 28.49
10/6/2015 17:00 to 16:10 28.28 28.39 28.58 28.37 28.30 28.37
10/6/2015 16:00 to 15:10 28.29 28.13 28.09 27.96 28.15 27.96
10/6/2015 15:00 to 14:10 27.99 28.01 27.97 27.99 27.93 28.02
10/6/2015 14:00 to 13:10 28.03 27.88 27.91 27.95 28.04 27.86
10/6/2015 13:00 to 12:10 27.87 27.96 27.90 27.83 27.96 28.03
10/6/2015 12:00 to 11:10 27.95 27.89 28.02 27.97 28.13 27.97
10/6/2015 11:00 to 10:10 27.91 28.09 27.97 28.05 28.01 28.06
10/6/2015 10:00 to 9:10 27.97 28.21 28.03 28.18 28.12 28.26
10/6/2015 09:00 to 8:10 28.25 28.25 28.32 28.16 28.32 28.14
10/6/2015 08:00 to 7:10 28.21 28.19 28.32 28.26 28.29 28.30
10/6/2015 07:00 to 6:10 28.20 28.27 28.32 28.38 28.33 28.35
10/6/2015 06:00 to 5:10 28.50 28.33 28.40 28.36 28.37 28.49
10/6/2015 05:00 to 4:10 28.49 28.47 28.43 28.42 28.43 28.42
10/6/2015 04:00 to 3:10 28.53 28.24 28.34 28.38 28.39 28.39
10/6/2015 03:00 to 2:10 28.48 28.33 28.57 28.71 28.64 28.69
10/6/2015 02:00 to 1:10 28.69 28.72 28.60 28.74 28.74 28.67
10/6/2015 01:00 to 0:10 28.70 28.75 28.49 28.57 28.55 28.39
10/6/2015 00:00 to 23:10 28.46 28.43 28.42 28.30 28.46 28.32
10/5/2015 23:00 to 22:10 28.43 28.41 28.39 28.41 28.51 28.32
10/5/2015 22:00 to 21:10 28.49 28.48 28.43 28.37 28.42 28.29
10/5/2015 21:00 to 20:10 28.29 28.40 28.32 28.35 28.26 28.39
10/5/2015 20:00 to 19:10 28.39 28.39 28.42 28.47 28.47 28.43
10/5/2015 19:00 to 18:10 28.38 28.48 28.50 28.48 28.45 28.43
10/5/2015 18:00 to 17:10 28.52 28.59 28.54 28.58 28.55 28.47
10/5/2015 17:00 to 16:10 28.27 28.38 28.39 28.22 28.39 28.21
10/5/2015 16:00 to 15:10 28.05 28.18 28.12 28.07 28.03 27.99
10/5/2015 15:00 to 14:10 28.02 28.00 27.92 27.91 27.97 28.01
10/5/2015 14:00 to 13:10 27.96 27.97 28.03 27.87 27.91 28.00
10/5/2015 13:00 to 12:10 27.98 27.92 27.93 27.92 27.90 27.92
10/5/2015 12:00 to 11:10 27.95 27.86 27.87 27.96 27.89 27.98
10/5/2015 11:00 to 10:10 27.85 28.03 27.95 28.03 27.89 28.05
10/5/2015 10:00 to 9:10 28.13 28.06 28.04 28.11 28.24 28.10
10/5/2015 09:00 to 8:10 28.16 28.05 28.21 28.13 28.15 28.21
10/5/2015 08:00 to 7:10 28.30 28.18 28.17 28.30 28.22 28.38
10/5/2015 07:00 to 6:10 28.27 28.25 28.25 28.21 28.17 28.20
10/5/2015 06:00 to 5:10 28.27 28.28 28.29 28.29 28.23 28.14
10/5/2015 05:00 to 4:10 28.23 28.26 28.43 28.16 28.20 28.38
10/5/2015 04:00 to 3:10 28.21 28.26 28.27 28.29 28.25 28.39
10/5/2015 03:00 to 2:10 28.45 28.46 28.44 28.49 28.65 28.79
10/5/2015 02:00 to 1:10 28.76 28.67 28.84 28.86 28.60 28.62
10/5/2015 01:00 to 0:10 28.67 28.66 28.53 28.67 28.57 28.52
10/5/2015 00:00 to 23:10 28.51 28.38 28.58 28.40 28.63 28.41
10/4/2015 23:00 to 22:10 28.25 28.34 28.44 28.39 28.23 28.35
10/4/2015 22:00 to 21:10 28.30 28.33 28.19 28.36 28.30 28.35
10/4/2015 21:00 to 20:10 28.30 28.29 28.42 28.43 28.25 28.28
10/4/2015 20:00 to 19:10 28.21 28.38 28.26 28.47 28.53 28.49
10/4/2015 19:00 to 18:10 28.26 28.53 28.36 28.49 28.39 28.58
10/4/2015 18:00 to 17:10 28.45 28.45 28.44 28.53 28.57 28.61
10/4/2015 17:00 to 16:10 28.58 28.35 28.56 28.34 28.48 28.39
10/4/2015 16:00 to 15:10 28.35 28.40 28.26 28.17 27.93 27.98
10/4/2015 15:00 to 14:10 28.02 28.07 27.92 27.98 27.94 28.12
10/4/2015 14:00 to 13:10 28.07 27.74 28.04 27.89 27.97 28.04
10/4/2015 13:00 to 12:10 28.00 28.08 27.92 28.05 27.98 28.09
10/4/2015 12:00 to 11:10 28.01 27.96 27.98 27.95 28.06 27.96
10/4/2015 11:00 to 10:10 27.94 28.06 28.14 28.13 28.19 28.08
10/4/2015 10:00 to 9:10 28.20 28.17 28.33 28.21 28.19 28.29
10/4/2015 09:00 to 8:10 28.20 28.20 28.21 28.20 28.12 28.25
10/4/2015 08:00 to 7:10 28.02 28.15 28.37 28.22 28.32 28.06
10/4/2015 07:00 to 6:10 28.17 28.33 28.25 28.18 28.27 28.25
10/4/2015 06:00 to 5:10 28.30 28.26 28.35 28.33 28.22 28.41
10/4/2015 05:00 to 4:10 28.40 28.36 28.20 28.35 28.36 28.26
10/4/2015 04:00 to 3:10 28.20 28.18 28.16 28.22 28.30 28.36
10/4/2015 03:00 to 2:10 28.26 28.14 28.32 28.38 28.47 28.45
10/4/2015 02:00 to 1:10 28.37 28.38 28.51 28.53 28.78 28.73
10/4/2015 01:00 to 0:10 28.83 28.81 28.56 28.68 28.71 28.71
10/4/2015 00:00 to 23:10 28.47 28.46 28.53 28.47 28.39 28.36
10/3/2015 23:00 to 22:10 28.41 28.28 28.44 28.30 28.37 28.28
10/3/2015 22:00 to 21:10 28.29 28.21 28.36 28.17 28.29 28.23
10/3/2015 21:00 to 20:10 28.34 28.57 28.39 28.24 28.30 28.40
10/3/2015 20:00 to 19:10 28.36 28.32 28.17 28.26 28.32 28.35
10/3/2015 19:00 to 18:10 28.39 28.34 28.48 28.38 28.34 28.17
10/3/2015 18:00 to 17:10 28.34 28.21 28.37 28.42 28.33 28.26
10/3/2015 17:00 to 16:10 28.38 28.28 28.59 28.42 28.42 28.16
10/3/2015 16:00 to 15:10 28.11 28.04 28.00 27.96 27.97 27.95
10/3/2015 15:00 to 14:10 27.95 27.91 28.05 27.83 27.86 28.00
10/3/2015 14:00 to 13:10 27.95 27.86 27.87 27.93 27.81 27.78
10/3/2015 13:00 to 12:10 27.83 27.82 27.86 27.82 27.82 27.88
10/3/2015 12:00 to 11:10 27.85 27.83 27.87 27.78 27.96 27.97
10/3/2015 11:00 to 10:10 27.86 27.94 28.01 27.89 28.05 27.89
10/3/2015 10:00 to 9:10 27.92 27.99 28.09 28.16 27.97 28.02
10/3/2015 09:00 to 8:10 -- -- -- -- -- --
10/3/2015 08:00 to 7:10 28.23 28.28 28.28 28.20 28.35 28.32
10/3/2015 07:00 to 6:10 28.23 28.26 28.15 28.17 28.24 28.19
10/3/2015 06:00 to 5:10 28.29 28.19 28.34 28.26 28.35 28.34
10/3/2015 05:00 to 4:10 28.38 28.19 28.35 28.35 28.19 28.33
10/3/2015 04:00 to 3:10 28.17 28.32 28.29 28.33 28.36 28.30
10/3/2015 03:00 to 2:10 28.11 28.34 28.37 28.44 28.56 28.44
10/3/2015 02:00 to 1:10 28.43 28.50 28.54 28.57 28.40 28.47
10/3/2015 01:00 to 0:10 28.56 28.43 28.40 28.62 28.62 28.64
10/3/2015 00:00 to 23:10 28.69 28.53 28.44 28.39 28.35 28.39
10/2/2015 23:00 to 22:10 28.40 28.60 28.58 28.80 28.54 28.57
10/2/2015 22:00 to 21:10 28.58 28.50 28.60 28.58 28.57 28.63
10/2/2015 21:00 to 20:10 28.60 28.52 28.50 28.69 28.50 28.42
10/2/2015 20:00 to 19:10 28.51 28.62 28.60 28.58 28.70 28.54
10/2/2015 19:00 to 18:10 28.58 28.53 28.52 28.44 28.57 28.30
10/2/2015 18:00 to 17:10 28.53 28.42 28.41 28.31 28.47 28.68
10/2/2015 17:00 to 16:10 28.56 28.28 28.35 28.21 28.17 28.19
10/2/2015 16:00 to 15:10 28.20 28.11 28.11 28.17 28.20 28.04
10/2/2015 15:00 to 14:10 28.14 28.15 28.02 28.08 28.13 28.28
10/2/2015 14:00 to 13:10 28.01 28.15 28.10 28.09 28.13 28.13
10/2/2015 13:00 to 12:10 28.02 28.10 28.06 28.14 28.19 28.15
10/2/2015 12:00 to 11:10 28.00 28.16 28.03 28.04 28.16 28.12
10/2/2015 11:00 to 10:10 28.17 28.05 28.11 28.19 28.18 28.28
10/2/2015 10:00 to 9:10 28.17 28.30 28.23 28.19 28.27 28.28
10/2/2015 09:00 to 8:10 28.20 28.29 28.30 28.31 28.40 28.41
10/2/2015 08:00 to 7:10 28.41 28.52 28.44 28.45 28.57 28.44
10/2/2015 07:00 to 6:10 28.47 28.40 28.48 28.45 28.58 28.33
10/2/2015 06:00 to 5:10 28.50 28.49 28.58 28.44 28.35 28.50
10/2/2015 05:00 to 4:10 28.47 28.51 28.35 28.42 28.29 28.38
10/2/2015 04:00 to 3:10 28.39 28.43 28.45 28.42 28.39 28.56
10/2/2015 03:00 to 2:10 28.43 28.40 28.36 28.37 28.30 28.43
10/2/2015 02:00 to 1:10 28.33 28.74 28.51 28.59 28.66 28.55
10/2/2015 01:00 to 0:10 28.61 28.74 28.54 28.45 28.38 28.49
10/2/2015 00:00 to 23:10 28.56 28.48 28.49 28.47 28.37 28.51
10/1/2015 23:00 to 22:10 28.51 28.31 28.33 28.34 28.37 28.48
10/1/2015 22:00 to 21:10 28.30 28.35 28.34 28.32 28.38 28.27
10/1/2015 21:00 to 20:10 28.32 28.39 28.35 28.42 28.37 28.41
10/1/2015 20:00 to 19:10 28.43 28.34 28.37 28.31 28.36 28.29
10/1/2015 19:00 to 18:10 28.20 28.15 28.46 28.35 28.31 28.32
10/1/2015 18:00 to 17:10 28.36 28.37 28.31 28.35 28.29 28.35
10/1/2015 17:00 to 16:10 28.28 28.41 28.31 28.44 28.32 28.24
10/1/2015 16:00 to 15:10 28.33 28.18 28.07 28.00 27.91 27.96
10/1/2015 15:00 to 14:10 27.91 27.93 27.91 27.81 27.94 27.89
10/1/2015 14:00 to 13:10 27.86 27.71 27.74 27.87 27.71 27.83
10/1/2015 13:00 to 12:10 27.93 27.74 27.84 27.97 27.72 27.84
10/1/2015 12:00 to 11:10 27.95 28.06 27.90 27.97 27.83 28.04
10/1/2015 11:00 to 10:10 27.99 27.98 27.99 28.00 27.99 28.06
10/1/2015 10:00 to 9:10 28.00 28.00 28.01 27.97 28.21 28.09
10/1/2015 09:00 to 8:10 28.06 28.19 28.16 28.17 28.27 28.06
10/1/2015 08:00 to 7:10 28.19 28.24 28.21 28.30 28.34 28.36
10/1/2015 07:00 to 6:10 28.39 28.37 28.31 28.25 28.36 28.41
10/1/2015 06:00 to 5:10 28.21 28.38 28.32 28.19 28.22 28.19
10/1/2015 05:00 to 4:10 28.33 28.31 28.32 28.31 28.41 28.28
10/1/2015 04:00 to 3:10 28.33 28.36 28.27 28.29 28.31 28.22
10/1/2015 03:00 to 2:10 28.32 28.32 28.36 28.42 28.46 28.62
10/1/2015 02:00 to 1:10 28.49 28.56 28.41 28.57 28.41 28.37
10/1/2015 01:00 to 0:10 28.35 28.34 28.31 28.32 28.36 28.55